sensor_id;sensor_type;location;lat;lon;timestamp;temperature;humidity
77496;SHT31;66600;48.378;9.948;2023-04-01T00:01:20;6.75;82.97
77496;SHT31;66600;48.378;9.948;2023-04-01T00:03:46;6.75;82.96
77496;SHT31;66600;48.378;9.948;2023-04-01T00:06:16;6.75;82.79
77496;SHT31;66600;48.378;9.948;2023-04-01T00:08:42;6.75;82.97
77496;SHT31;66600;48.378;9.948;2023-04-01T00:11:07;6.79;82.85
77496;SHT31;66600;48.378;9.948;2023-04-01T00:13:32;6.78;82.64
77496;SHT31;66600;48.378;9.948;2023-04-01T00:15:58;6.76;83.07
77496;SHT31;66600;48.378;9.948;2023-04-01T00:18:25;6.73;83.03
77496;SHT31;66600;48.378;9.948;2023-04-01T00:20:51;6.75;82.79
77496;SHT31;66600;48.378;9.948;2023-04-01T00:23:17;6.78;82.73
77496;SHT31;66600;48.378;9.948;2023-04-01T00:25:44;6.79;82.26
77496;SHT31;66600;48.378;9.948;2023-04-01T00:28:10;6.75;82.58
77496;SHT31;66600;48.378;9.948;2023-04-01T00:30:36;6.68;82.96
77496;SHT31;66600;48.378;9.948;2023-04-01T00:33:02;6.68;82.98
77496;SHT31;66600;48.378;9.948;2023-04-01T00:35:27;6.62;83.83
77496;SHT31;66600;48.378;9.948;2023-04-01T00:37:53;6.55;83.95
77496;SHT31;66600;48.378;9.948;2023-04-01T00:40:35;6.55;84.22
77496;SHT31;66600;48.378;9.948;2023-04-01T00:43:00;6.54;84.25
77496;SHT31;66600;48.378;9.948;2023-04-01T00:45:38;6.56;84.64
77496;SHT31;66600;48.378;9.948;2023-04-01T00:48:19;6.55;84.30
77496;SHT31;66600;48.378;9.948;2023-04-01T00:50:50;6.56;84.18
77496;SHT31;66600;48.378;9.948;2023-04-01T00:53:16;6.56;84.31
77496;SHT31;66600;48.378;9.948;2023-04-01T00:55:49;6.52;84.44
77496;SHT31;66600;48.378;9.948;2023-04-01T00:58:17;6.52;84.69
77496;SHT31;66600;48.378;9.948;2023-04-01T01:00:45;6.52;84.99
77496;SHT31;66600;48.378;9.948;2023-04-01T01:03:11;6.45;84.44
77496;SHT31;66600;48.378;9.948;2023-04-01T01:06:09;6.45;84.34
77496;SHT31;66600;48.378;9.948;2023-04-01T01:14:49;6.42;84.48
77496;SHT31;66600;48.378;9.948;2023-04-01T01:17:32;6.44;84.28
77496;SHT31;66600;48.378;9.948;2023-04-01T01:20:10;6.42;84.34
77496;SHT31;66600;48.378;9.948;2023-04-01T01:26:02;6.42;83.86
77496;SHT31;66600;48.378;9.948;2023-04-01T01:28:49;6.37;84.13
77496;SHT31;66600;48.378;9.948;2023-04-01T01:31:28;6.37;84.12
77496;SHT31;66600;48.378;9.948;2023-04-01T01:34:07;6.30;84.42
77496;SHT31;66600;48.378;9.948;2023-04-01T01:36:42;6.37;84.24
77496;SHT31;66600;48.378;9.948;2023-04-01T01:39:12;6.33;84.45
77496;SHT31;66600;48.378;9.948;2023-04-01T01:41:39;6.30;84.58
77496;SHT31;66600;48.378;9.948;2023-04-01T01:44:08;6.27;84.48
77496;SHT31;66600;48.378;9.948;2023-04-01T01:46:34;6.24;84.91
77496;SHT31;66600;48.378;9.948;2023-04-01T01:49:02;6.18;84.69
77496;SHT31;66600;48.378;9.948;2023-04-01T01:51:28;6.13;84.78
77496;SHT31;66600;48.378;9.948;2023-04-01T01:53:54;6.09;84.84
77496;SHT31;66600;48.378;9.948;2023-04-01T01:56:22;6.05;85.05
77496;SHT31;66600;48.378;9.948;2023-04-01T01:58:52;5.99;85.31
77496;SHT31;66600;48.378;9.948;2023-04-01T02:01:23;5.95;85.36
77496;SHT31;66600;48.378;9.948;2023-04-01T02:03:50;5.95;85.32
77496;SHT31;66600;48.378;9.948;2023-04-01T02:06:19;5.95;85.37
77496;SHT31;66600;48.378;9.948;2023-04-01T02:08:45;5.95;85.32
77496;SHT31;66600;48.378;9.948;2023-04-01T02:11:15;5.93;85.23
77496;SHT31;66600;48.378;9.948;2023-04-01T02:13:46;5.95;85.36
77496;SHT31;66600;48.378;9.948;2023-04-01T02:16:16;5.96;85.26
77496;SHT31;66600;48.378;9.948;2023-04-01T02:18:44;5.96;85.28
77496;SHT31;66600;48.378;9.948;2023-04-01T02:21:11;5.97;85.25
77496;SHT31;66600;48.378;9.948;2023-04-01T02:23:37;6.03;85.01
77496;SHT31;66600;48.378;9.948;2023-04-01T02:26:06;6.00;85.04
77496;SHT31;66600;48.378;9.948;2023-04-01T02:28:34;6.02;84.75
77496;SHT31;66600;48.378;9.948;2023-04-01T02:31:02;6.00;84.90
77496;SHT31;66600;48.378;9.948;2023-04-01T02:33:29;6.03;84.65
77496;SHT31;66600;48.378;9.948;2023-04-01T02:35:56;6.05;84.32
77496;SHT31;66600;48.378;9.948;2023-04-01T02:38:21;6.02;84.62
77496;SHT31;66600;48.378;9.948;2023-04-01T02:40:50;5.96;84.94
77496;SHT31;66600;48.378;9.948;2023-04-01T02:43:16;5.93;84.80
77496;SHT31;66600;48.378;9.948;2023-04-01T02:45:43;5.87;85.06
77496;SHT31;66600;48.378;9.948;2023-04-01T02:48:08;5.83;85.14
77496;SHT31;66600;48.378;9.948;2023-04-01T02:50:33;5.82;85.30
77496;SHT31;66600;48.378;9.948;2023-04-01T02:53:00;5.80;84.98
77496;SHT31;66600;48.378;9.948;2023-04-01T02:55:27;5.83;84.98
77496;SHT31;66600;48.378;9.948;2023-04-01T02:57:53;5.82;84.86
77496;SHT31;66600;48.378;9.948;2023-04-01T03:00:18;5.89;84.15
77496;SHT31;66600;48.378;9.948;2023-04-01T03:02:43;5.93;84.23
77496;SHT31;66600;48.378;9.948;2023-04-01T03:05:09;5.92;84.13
77496;SHT31;66600;48.378;9.948;2023-04-01T03:07:35;5.96;83.78
77496;SHT31;66600;48.378;9.948;2023-04-01T03:10:00;6.00;83.32
77496;SHT31;66600;48.378;9.948;2023-04-01T03:12:26;5.97;83.72
77496;SHT31;66600;48.378;9.948;2023-04-01T03:14:51;5.92;84.05
77496;SHT31;66600;48.378;9.948;2023-04-01T03:17:16;5.87;83.84
77496;SHT31;66600;48.378;9.948;2023-04-01T03:19:42;5.87;84.23
77496;SHT31;66600;48.378;9.948;2023-04-01T03:22:10;5.85;83.59
77496;SHT31;66600;48.378;9.948;2023-04-01T03:24:36;5.87;83.61
77496;SHT31;66600;48.378;9.948;2023-04-01T03:27:01;5.83;84.04
77496;SHT31;66600;48.378;9.948;2023-04-01T03:29:26;5.82;83.72
77496;SHT31;66600;48.378;9.948;2023-04-01T03:31:52;5.76;84.45
77496;SHT31;66600;48.378;9.948;2023-04-01T03:34:17;5.80;84.32
77496;SHT31;66600;48.378;9.948;2023-04-01T03:36:42;5.73;85.09
77496;SHT31;66600;48.378;9.948;2023-04-01T03:39:08;5.68;85.49
77496;SHT31;66600;48.378;9.948;2023-04-01T03:41:35;5.66;85.94
77496;SHT31;66600;48.378;9.948;2023-04-01T03:44:01;5.63;86.77
77496;SHT31;66600;48.378;9.948;2023-04-01T03:46:26;5.62;86.58
77496;SHT31;66600;48.378;9.948;2023-04-01T03:48:51;5.65;86.65
77496;SHT31;66600;48.378;9.948;2023-04-01T03:51:17;5.58;87.12
77496;SHT31;66600;48.378;9.948;2023-04-01T03:53:42;5.56;87.43
77496;SHT31;66600;48.378;9.948;2023-04-01T03:56:08;5.58;87.39
77496;SHT31;66600;48.378;9.948;2023-04-01T03:58:34;5.62;87.12
77496;SHT31;66600;48.378;9.948;2023-04-01T04:01:00;5.66;86.79
77496;SHT31;66600;48.378;9.948;2023-04-01T04:03:25;5.65;86.90
77496;SHT31;66600;48.378;9.948;2023-04-01T04:05:51;5.63;87.31
77496;SHT31;66600;48.378;9.948;2023-04-01T04:08:17;5.60;87.66
77496;SHT31;66600;48.378;9.948;2023-04-01T04:10:42;5.59;87.78
77496;SHT31;66600;48.378;9.948;2023-04-01T04:13:08;5.60;87.86
77496;SHT31;66600;48.378;9.948;2023-04-01T04:15:33;5.58;88.35
77496;SHT31;66600;48.378;9.948;2023-04-01T04:17:58;5.60;88.74
77496;SHT31;66600;48.378;9.948;2023-04-01T04:20:24;5.62;88.94
77496;SHT31;66600;48.378;9.948;2023-04-01T04:22:50;5.63;88.64
77496;SHT31;66600;48.378;9.948;2023-04-01T04:25:15;5.69;88.72
77496;SHT31;66600;48.378;9.948;2023-04-01T04:27:41;5.70;88.82
77496;SHT31;66600;48.378;9.948;2023-04-01T04:30:07;5.72;88.47
77496;SHT31;66600;48.378;9.948;2023-04-01T04:32:33;5.75;88.20
77496;SHT31;66600;48.378;9.948;2023-04-01T04:34:59;5.79;88.05
77496;SHT31;66600;48.378;9.948;2023-04-01T04:37:25;5.79;87.46
77496;SHT31;66600;48.378;9.948;2023-04-01T04:39:51;5.80;86.65
77496;SHT31;66600;48.378;9.948;2023-04-01T04:42:16;5.80;86.57
77496;SHT31;66600;48.378;9.948;2023-04-01T04:44:42;5.86;86.60
77496;SHT31;66600;48.378;9.948;2023-04-01T04:47:07;5.82;86.59
77496;SHT31;66600;48.378;9.948;2023-04-01T04:49:32;5.83;85.84
77496;SHT31;66600;48.378;9.948;2023-04-01T04:51:58;5.83;86.05
77496;SHT31;66600;48.378;9.948;2023-04-01T04:54:23;5.83;86.38
77496;SHT31;66600;48.378;9.948;2023-04-01T04:56:51;5.75;86.08
77496;SHT31;66600;48.378;9.948;2023-04-01T04:59:16;5.78;86.16
77496;SHT31;66600;48.378;9.948;2023-04-01T05:01:42;5.75;85.83
77496;SHT31;66600;48.378;9.948;2023-04-01T05:04:07;5.76;85.79
77496;SHT31;66600;48.378;9.948;2023-04-01T05:06:32;5.75;85.95
77496;SHT31;66600;48.378;9.948;2023-04-01T05:08:58;5.65;85.94
77496;SHT31;66600;48.378;9.948;2023-04-01T05:11:23;5.62;85.83
77496;SHT31;66600;48.378;9.948;2023-04-01T05:13:48;5.58;85.91
77496;SHT31;66600;48.378;9.948;2023-04-01T05:16:17;5.55;86.33
77496;SHT31;66600;48.378;9.948;2023-04-01T05:18:43;5.51;86.35
77496;SHT31;66600;48.378;9.948;2023-04-01T05:21:10;5.47;86.17
77496;SHT31;66600;48.378;9.948;2023-04-01T05:23:36;5.51;85.96
77496;SHT31;66600;48.378;9.948;2023-04-01T05:26:06;5.54;85.78
77496;SHT31;66600;48.378;9.948;2023-04-01T05:28:32;5.52;86.09
77496;SHT31;66600;48.378;9.948;2023-04-01T05:31:02;5.62;85.87
77496;SHT31;66600;48.378;9.948;2023-04-01T05:33:28;5.66;86.09
77496;SHT31;66600;48.378;9.948;2023-04-01T05:35:54;5.70;85.92
77496;SHT31;66600;48.378;9.948;2023-04-01T05:38:19;5.72;86.09
77496;SHT31;66600;48.378;9.948;2023-04-01T05:40:45;5.76;86.15
77496;SHT31;66600;48.378;9.948;2023-04-01T05:43:10;5.85;85.98
77496;SHT31;66600;48.378;9.948;2023-04-01T05:45:36;5.83;85.95
77496;SHT31;66600;48.378;9.948;2023-04-01T05:48:02;5.87;86.28
77496;SHT31;66600;48.378;9.948;2023-04-01T05:50:27;5.95;86.23
77496;SHT31;66600;48.378;9.948;2023-04-01T05:52:52;6.03;86.11
77496;SHT31;66600;48.378;9.948;2023-04-01T05:55:18;6.02;86.14
77496;SHT31;66600;48.378;9.948;2023-04-01T05:57:45;6.09;86.46
77496;SHT31;66600;48.378;9.948;2023-04-01T06:00:11;6.18;86.04
77496;SHT31;66600;48.378;9.948;2023-04-01T06:02:37;6.24;86.37
77496;SHT31;66600;48.378;9.948;2023-04-01T06:05:17;6.25;86.26
77496;SHT31;66600;48.378;9.948;2023-04-01T06:07:42;6.30;86.11
77496;SHT31;66600;48.378;9.948;2023-04-01T06:10:14;6.37;85.79
77496;SHT31;66600;48.378;9.948;2023-04-01T06:15:44;6.38;85.84
77496;SHT31;66600;48.378;9.948;2023-04-01T06:47:58;7.28;79.91
77496;SHT31;66600;48.378;9.948;2023-04-01T06:50:55;7.34;79.29
77496;SHT31;66600;48.378;9.948;2023-04-01T06:56:26;7.44;78.77
77496;SHT31;66600;48.378;9.948;2023-04-01T06:58:56;7.37;77.91
77496;SHT31;66600;48.378;9.948;2023-04-01T07:01:28;7.48;77.45
77496;SHT31;66600;48.378;9.948;2023-04-01T07:04:15;7.64;77.58
77496;SHT31;66600;48.378;9.948;2023-04-01T07:06:52;7.59;77.55
77496;SHT31;66600;48.378;9.948;2023-04-01T07:09:22;7.64;77.20
77496;SHT31;66600;48.378;9.948;2023-04-01T07:11:50;7.51;77.33
77496;SHT31;66600;48.378;9.948;2023-04-01T07:14:20;7.50;77.33
77496;SHT31;66600;48.378;9.948;2023-04-01T07:16:54;7.41;77.79
77496;SHT31;66600;48.378;9.948;2023-04-01T07:19:32;7.52;77.73
77496;SHT31;66600;48.378;9.948;2023-04-01T07:22:04;7.74;76.98
77496;SHT31;66600;48.378;9.948;2023-04-01T07:24:36;7.85;76.55
77496;SHT31;66600;48.378;9.948;2023-04-01T07:27:03;7.95;76.10
77496;SHT31;66600;48.378;9.948;2023-04-01T07:29:30;7.96;76.81
77496;SHT31;66600;48.378;9.948;2023-04-01T07:32:17;8.02;77.18
77496;SHT31;66600;48.378;9.948;2023-04-01T07:35:02;8.34;75.83
77496;SHT31;66600;48.378;9.948;2023-04-01T07:40:21;8.26;76.24
77496;SHT31;66600;48.378;9.948;2023-04-01T07:51:27;7.97;77.53
77496;SHT31;66600;48.378;9.948;2023-04-01T07:54:14;8.12;76.92
77496;SHT31;66600;48.378;9.948;2023-04-01T07:57:19;8.03;76.39
77496;SHT31;66600;48.378;9.948;2023-04-01T07:59:49;8.06;77.03
77496;SHT31;66600;48.378;9.948;2023-04-01T08:05:24;8.06;76.80
77496;SHT31;66600;48.378;9.948;2023-04-01T08:08:11;8.09;76.16
77496;SHT31;66600;48.378;9.948;2023-04-01T08:13:42;7.96;76.54
77496;SHT31;66600;48.378;9.948;2023-04-01T08:16:21;8.14;76.18
77496;SHT31;66600;48.378;9.948;2023-04-01T08:21:35;8.19;75.67
77496;SHT31;66600;48.378;9.948;2023-04-01T08:26:53;8.33;76.09
77496;SHT31;66600;48.378;9.948;2023-04-01T08:29:23;8.31;75.61
77496;SHT31;66600;48.378;9.948;2023-04-01T08:31:54;8.36;75.83
77496;SHT31;66600;48.378;9.948;2023-04-01T08:34:31;8.20;75.35
77496;SHT31;66600;48.378;9.948;2023-04-01T08:37:04;8.29;74.71
77496;SHT31;66600;48.378;9.948;2023-04-01T08:39:39;8.09;74.76
77496;SHT31;66600;48.378;9.948;2023-04-01T08:42:42;8.03;74.93
77496;SHT31;66600;48.378;9.948;2023-04-01T08:45:49;8.00;74.89
77496;SHT31;66600;48.378;9.948;2023-04-01T08:48:28;8.06;75.46
77496;SHT31;66600;48.378;9.948;2023-04-01T08:51:38;8.09;75.86
77496;SHT31;66600;48.378;9.948;2023-04-01T09:03:02;7.87;78.40
77496;SHT31;66600;48.378;9.948;2023-04-01T09:11:16;7.59;79.28
77496;SHT31;66600;48.378;9.948;2023-04-01T09:16:26;7.55;79.76
77496;SHT31;66600;48.378;9.948;2023-04-01T09:22:22;7.58;80.78
77496;SHT31;66600;48.378;9.948;2023-04-01T09:27:56;7.44;79.08
77496;SHT31;66600;48.378;9.948;2023-04-01T09:30:34;7.46;79.87
77496;SHT31;66600;48.378;9.948;2023-04-01T09:35:55;7.51;78.31
77496;SHT31;66600;48.378;9.948;2023-04-01T09:38:29;7.54;76.93
77496;SHT31;66600;48.378;9.948;2023-04-01T09:41:15;7.57;77.22
77496;SHT31;66600;48.378;9.948;2023-04-01T09:44:02;7.57;78.54
77496;SHT31;66600;48.378;9.948;2023-04-01T09:49:07;7.52;78.69
77496;SHT31;66600;48.378;9.948;2023-04-01T09:51:43;7.64;79.69
77496;SHT31;66600;48.378;9.948;2023-04-01T10:00:29;7.41;79.86
77496;SHT31;66600;48.378;9.948;2023-04-01T10:03:11;7.38;79.42
77496;SHT31;66600;48.378;9.948;2023-04-01T10:08:58;7.48;79.00
77496;SHT31;66600;48.378;9.948;2023-04-01T10:17:24;7.48;79.29
77496;SHT31;66600;48.378;9.948;2023-04-01T10:20:14;7.52;79.15
77496;SHT31;66600;48.378;9.948;2023-04-01T10:23:29;7.66;78.79
77496;SHT31;66600;48.378;9.948;2023-04-01T10:26:16;7.71;78.66
77496;SHT31;66600;48.378;9.948;2023-04-01T10:34:27;7.86;76.96
77496;SHT31;66600;48.378;9.948;2023-04-01T10:36:58;7.78;76.94
77496;SHT31;66600;48.378;9.948;2023-04-01T10:42:39;7.71;78.41
77496;SHT31;66600;48.378;9.948;2023-04-01T10:48:11;7.65;79.80
77496;SHT31;66600;48.378;9.948;2023-04-01T10:53:40;7.68;79.18
77496;SHT31;66600;48.378;9.948;2023-04-01T10:56:33;7.81;78.66
77496;SHT31;66600;48.378;9.948;2023-04-01T11:01:50;7.96;76.91
77496;SHT31;66600;48.378;9.948;2023-04-01T11:04:39;8.02;78.44
77496;SHT31;66600;48.378;9.948;2023-04-01T11:12:56;7.78;79.32
77496;SHT31;66600;48.378;9.948;2023-04-01T11:15:48;7.71;80.51
77496;SHT31;66600;48.378;9.948;2023-04-01T11:21:21;7.52;82.28
77496;SHT31;66600;48.378;9.948;2023-04-01T11:24:07;7.37;82.52
77496;SHT31;66600;48.378;9.948;2023-04-01T11:26:59;7.32;83.06
77496;SHT31;66600;48.378;9.948;2023-04-01T11:35:36;7.21;83.26
77496;SHT31;66600;48.378;9.948;2023-04-01T11:43:45;7.16;83.02
77496;SHT31;66600;48.378;9.948;2023-04-01T11:46:24;7.19;83.38
77496;SHT31;66600;48.378;9.948;2023-04-01T12:11:33;7.74;82.46
77496;SHT31;66600;48.378;9.948;2023-04-01T12:14:27;7.69;81.73
77496;SHT31;66600;48.378;9.948;2023-04-01T12:19:58;8.06;81.93
77496;SHT31;66600;48.378;9.948;2023-04-01T12:28:10;8.60;78.30
77496;SHT31;66600;48.378;9.948;2023-04-01T12:39:11;8.89;78.02
77496;SHT31;66600;48.378;9.948;2023-04-01T12:44:43;8.79;78.68
77496;SHT31;66600;48.378;9.948;2023-04-01T12:50:16;8.64;80.13
77496;SHT31;66600;48.378;9.948;2023-04-01T12:55:37;8.54;82.32
77496;SHT31;66600;48.378;9.948;2023-04-01T13:10:01;8.68;80.97
77496;SHT31;66600;48.378;9.948;2023-04-01T13:12:47;8.71;80.11
77496;SHT31;66600;48.378;9.948;2023-04-01T13:15:41;8.61;80.92
77496;SHT31;66600;48.378;9.948;2023-04-01T13:23:41;8.64;81.60
77496;SHT31;66600;48.378;9.948;2023-04-01T13:32:02;8.75;82.15
77496;SHT31;66600;48.378;9.948;2023-04-01T13:34:48;8.95;81.13
77496;SHT31;66600;48.378;9.948;2023-04-01T13:40:12;9.00;80.24
77496;SHT31;66600;48.378;9.948;2023-04-01T13:42:45;9.07;78.98
77496;SHT31;66600;48.378;9.948;2023-04-01T13:45:19;8.98;80.73
77496;SHT31;66600;48.378;9.948;2023-04-01T13:50:32;9.19;77.71
77496;SHT31;66600;48.378;9.948;2023-04-01T13:55:55;9.23;76.51
77496;SHT31;66600;48.378;9.948;2023-04-01T14:06:38;9.57;73.14
77496;SHT31;66600;48.378;9.948;2023-04-01T14:12:13;9.52;73.04
77496;SHT31;66600;48.378;9.948;2023-04-01T14:20:26;9.55;74.65
77496;SHT31;66600;48.378;9.948;2023-04-01T14:25:47;9.41;72.51
77496;SHT31;66600;48.378;9.948;2023-04-01T14:28:37;9.34;73.39
77496;SHT31;66600;48.378;9.948;2023-04-01T14:36:41;9.19;72.45
77496;SHT31;66600;48.378;9.948;2023-04-01T14:48:31;9.37;71.04
77496;SHT31;66600;48.378;9.948;2023-04-01T14:51:03;9.36;69.99
77496;SHT31;66600;48.378;9.948;2023-04-01T14:53:33;9.34;69.47
77496;SHT31;66600;48.378;9.948;2023-04-01T14:56:01;9.33;69.19
77496;SHT31;66600;48.378;9.948;2023-04-01T14:58:47;9.36;70.05
77496;SHT31;66600;48.378;9.948;2023-04-01T15:12:57;9.51;67.74
77496;SHT31;66600;48.378;9.948;2023-04-01T15:15:35;9.52;68.80
77496;SHT31;66600;48.378;9.948;2023-04-01T15:18:09;9.55;68.29
77496;SHT31;66600;48.378;9.948;2023-04-01T15:26:22;9.55;68.02
77496;SHT31;66600;48.378;9.948;2023-04-01T15:31:50;9.50;68.33
77496;SHT31;66600;48.378;9.948;2023-04-01T15:34:38;9.50;68.03
77496;SHT31;66600;48.378;9.948;2023-04-01T15:37:10;9.44;68.13
77496;SHT31;66600;48.378;9.948;2023-04-01T15:45:15;9.45;69.77
77496;SHT31;66600;48.378;9.948;2023-04-01T15:50:44;9.45;69.71
77496;SHT31;66600;48.378;9.948;2023-04-01T15:53:29;9.45;71.14
77496;SHT31;66600;48.378;9.948;2023-04-01T15:56:10;9.41;71.18
77496;SHT31;66600;48.378;9.948;2023-04-01T15:58:53;9.37;72.18
77496;SHT31;66600;48.378;9.948;2023-04-01T16:07:02;9.10;74.95
77496;SHT31;66600;48.378;9.948;2023-04-01T16:09:56;9.03;75.71
77496;SHT31;66600;48.378;9.948;2023-04-01T16:12:38;8.89;77.04
77496;SHT31;66600;48.378;9.948;2023-04-01T16:15:20;8.79;78.27
77496;SHT31;66600;48.378;9.948;2023-04-01T16:21:01;8.55;79.79
77496;SHT31;66600;48.378;9.948;2023-04-01T16:23:48;8.47;78.66
77496;SHT31;66600;48.378;9.948;2023-04-01T16:26:20;8.40;79.75
77496;SHT31;66600;48.378;9.948;2023-04-01T16:28:57;8.34;79.39
77496;SHT31;66600;48.378;9.948;2023-04-01T16:31:32;8.33;80.17
77496;SHT31;66600;48.378;9.948;2023-04-01T16:36:51;8.36;79.48
77496;SHT31;66600;48.378;9.948;2023-04-01T16:39:41;8.36;80.25
77496;SHT31;66600;48.378;9.948;2023-04-01T16:42:24;8.26;79.35
77496;SHT31;66600;48.378;9.948;2023-04-01T16:47:46;8.19;80.23
77496;SHT31;66600;48.378;9.948;2023-04-01T16:50:24;8.14;80.71
77496;SHT31;66600;48.378;9.948;2023-04-01T16:58:57;8.14;80.69
77496;SHT31;66600;48.378;9.948;2023-04-01T17:01:37;8.09;80.84
77496;SHT31;66600;48.378;9.948;2023-04-01T17:04:48;8.02;81.93
77496;SHT31;66600;48.378;9.948;2023-04-01T17:07:49;8.00;81.75
77496;SHT31;66600;48.378;9.948;2023-04-01T17:15:43;8.00;82.00
77496;SHT31;66600;48.378;9.948;2023-04-01T17:18:40;8.00;82.35
77496;SHT31;66600;48.378;9.948;2023-04-01T17:21:07;7.95;82.31
77496;SHT31;66600;48.378;9.948;2023-04-01T17:23:48;7.92;82.78
77496;SHT31;66600;48.378;9.948;2023-04-01T17:26:39;7.90;83.06
77496;SHT31;66600;48.378;9.948;2023-04-01T17:35:47;7.83;82.48
77496;SHT31;66600;48.378;9.948;2023-04-01T17:40:40;7.82;83.05
77496;SHT31;66600;48.378;9.948;2023-04-01T17:43:21;7.79;82.83
77496;SHT31;66600;48.378;9.948;2023-04-01T17:45:56;7.74;82.78
77496;SHT31;66600;48.378;9.948;2023-04-01T17:48:35;7.69;82.47
77496;SHT31;66600;48.378;9.948;2023-04-01T17:51:17;7.68;82.53
77496;SHT31;66600;48.378;9.948;2023-04-01T17:54:08;7.68;83.39
77496;SHT31;66600;48.378;9.948;2023-04-01T18:08:12;7.55;82.47
77496;SHT31;66600;48.378;9.948;2023-04-01T18:10:40;7.55;82.40
77496;SHT31;66600;48.378;9.948;2023-04-01T18:15:46;7.50;82.37
77496;SHT31;66600;48.378;9.948;2023-04-01T18:23:47;7.43;82.88
77496;SHT31;66600;48.378;9.948;2023-04-01T18:26:23;7.40;82.87
77496;SHT31;66600;48.378;9.948;2023-04-01T18:29:02;7.34;82.96
77496;SHT31;66600;48.378;9.948;2023-04-01T18:31:39;7.34;82.87
77496;SHT31;66600;48.378;9.948;2023-04-01T18:34:12;7.30;82.97
77496;SHT31;66600;48.378;9.948;2023-04-01T18:36:56;7.27;82.46
77496;SHT31;66600;48.378;9.948;2023-04-01T18:39:35;7.30;81.99
77496;SHT31;66600;48.378;9.948;2023-04-01T18:42:43;7.28;82.38
77496;SHT31;66600;48.378;9.948;2023-04-01T18:45:26;7.28;81.73
77496;SHT31;66600;48.378;9.948;2023-04-01T18:50:55;7.20;81.85
77496;SHT31;66600;48.378;9.948;2023-04-01T19:02:32;7.24;80.67
77496;SHT31;66600;48.378;9.948;2023-04-01T19:05:09;7.23;80.55
77496;SHT31;66600;48.378;9.948;2023-04-01T19:07:47;7.19;80.52
77496;SHT31;66600;48.378;9.948;2023-04-01T19:20:47;7.23;80.07
77496;SHT31;66600;48.378;9.948;2023-04-01T19:26:11;7.10;81.13
77496;SHT31;66600;48.378;9.948;2023-04-01T19:29:17;7.11;81.16
77496;SHT31;66600;48.378;9.948;2023-04-01T19:37:40;7.06;81.39
77496;SHT31;66600;48.378;9.948;2023-04-01T19:45:56;7.07;81.12
77496;SHT31;66600;48.378;9.948;2023-04-01T19:57:09;7.23;80.42
77496;SHT31;66600;48.378;9.948;2023-04-01T19:59:52;7.27;80.27
77496;SHT31;66600;48.378;9.948;2023-04-01T20:02:31;7.28;80.40
77496;SHT31;66600;48.378;9.948;2023-04-01T20:05:03;7.23;80.54
77496;SHT31;66600;48.378;9.948;2023-04-01T20:07:35;7.27;80.26
77496;SHT31;66600;48.378;9.948;2023-04-01T20:10:09;7.24;80.28
77496;SHT31;66600;48.378;9.948;2023-04-01T20:15:36;7.17;81.02
77496;SHT31;66600;48.378;9.948;2023-04-01T20:20:39;7.17;80.87
77496;SHT31;66600;48.378;9.948;2023-04-01T20:25:52;7.16;80.87
77496;SHT31;66600;48.378;9.948;2023-04-01T20:33:37;7.14;81.19
77496;SHT31;66600;48.378;9.948;2023-04-01T20:36:30;7.09;81.58
77496;SHT31;66600;48.378;9.948;2023-04-01T20:39:28;6.90;82.09
77496;SHT31;66600;48.378;9.948;2023-04-01T20:42:26;6.83;82.11
77496;SHT31;66600;48.378;9.948;2023-04-01T20:50:30;6.49;83.16
77496;SHT31;66600;48.378;9.948;2023-04-01T20:58:54;6.49;82.89
77496;SHT31;66600;48.378;9.948;2023-04-01T21:04:22;6.38;83.16
77496;SHT31;66600;48.378;9.948;2023-04-01T21:06:58;6.30;83.55
77496;SHT31;66600;48.378;9.948;2023-04-01T21:09:55;6.18;84.20
77496;SHT31;66600;48.378;9.948;2023-04-01T21:16:11;6.05;84.65
77496;SHT31;66600;48.378;9.948;2023-04-01T21:19:03;6.05;84.74
77496;SHT31;66600;48.378;9.948;2023-04-01T21:21:49;5.97;85.09
77496;SHT31;66600;48.378;9.948;2023-04-01T21:27:33;5.89;85.38
77496;SHT31;66600;48.378;9.948;2023-04-01T21:30:25;5.86;85.39
77496;SHT31;66600;48.378;9.948;2023-04-01T21:33:25;5.86;85.47
77496;SHT31;66600;48.378;9.948;2023-04-01T21:41:38;5.68;86.05
77496;SHT31;66600;48.378;9.948;2023-04-01T22:01:27;5.45;87.49
77496;SHT31;66600;48.378;9.948;2023-04-01T22:25:18;5.45;87.09
77496;SHT31;66600;48.378;9.948;2023-04-01T22:27:49;5.44;87.09
77496;SHT31;66600;48.378;9.948;2023-04-01T22:30:19;5.42;87.10
77496;SHT31;66600;48.378;9.948;2023-04-01T22:32:47;5.42;87.21
77496;SHT31;66600;48.378;9.948;2023-04-01T22:35:30;5.44;87.10
77496;SHT31;66600;48.378;9.948;2023-04-01T22:41:38;5.51;86.84
77496;SHT31;66600;48.378;9.948;2023-04-01T22:47:26;5.62;86.39
77496;SHT31;66600;48.378;9.948;2023-04-01T22:50:00;5.66;86.05
77496;SHT31;66600;48.378;9.948;2023-04-01T22:52:36;5.62;86.35
77496;SHT31;66600;48.378;9.948;2023-04-01T22:55:21;5.65;86.53
77496;SHT31;66600;48.378;9.948;2023-04-01T22:58:03;5.70;86.33
77496;SHT31;66600;48.378;9.948;2023-04-01T23:00:56;5.68;86.57
77496;SHT31;66600;48.378;9.948;2023-04-01T23:03:30;5.70;86.59
77496;SHT31;66600;48.378;9.948;2023-04-01T23:05:59;5.72;86.62
77496;SHT31;66600;48.378;9.948;2023-04-01T23:19:40;5.70;87.35
77496;SHT31;66600;48.378;9.948;2023-04-01T23:22:24;5.70;87.64
77496;SHT31;66600;48.378;9.948;2023-04-01T23:33:21;5.79;87.56
77496;SHT31;66600;48.378;9.948;2023-04-01T23:36:10;5.83;87.11
77496;SHT31;66600;48.378;9.948;2023-04-01T23:38:38;5.85;87.01
77496;SHT31;66600;48.378;9.948;2023-04-01T23:41:05;5.85;87.16
77496;SHT31;66600;48.378;9.948;2023-04-01T23:43:38;5.82;87.40
77496;SHT31;66600;48.378;9.948;2023-04-01T23:46:07;5.82;87.13
77496;SHT31;66600;48.378;9.948;2023-04-01T23:48:41;5.79;87.24
77496;SHT31;66600;48.378;9.948;2023-04-01T23:51:14;5.78;87.42
77496;SHT31;66600;48.378;9.948;2023-04-01T23:53:47;5.80;87.13
77496;SHT31;66600;48.378;9.948;2023-04-01T23:56:16;5.75;87.43
77496;SHT31;66600;48.378;9.948;2023-04-01T23:58:48;5.72;87.47
